sensor_id;sensor_type;location;lat;lon;timestamp;pressure;altitude;pressure_sealevel;temperature;humidity
68107;BME280;54892;47.488;19.026;2022-08-20T00:01:01;99412.75;;;22.75;76.67
68107;BME280;54892;47.488;19.026;2022-08-20T00:04:05;99398.97;;;22.76;76.49
68107;BME280;54892;47.488;19.026;2022-08-20T00:07:08;99423.75;;;22.86;76.14
68107;BME280;54892;47.488;19.026;2022-08-20T00:10:11;99423.19;;;22.76;75.38
68107;BME280;54892;47.488;19.026;2022-08-20T00:13:16;99426.94;;;22.72;75.82
68107;BME280;54892;47.488;19.026;2022-08-20T00:16:20;99439.56;;;22.87;75.92
68107;BME280;54892;47.488;19.026;2022-08-20T00:19:25;99435.38;;;22.90;75.52
68107;BME280;54892;47.488;19.026;2022-08-20T00:22:28;99433.44;;;22.90;75.13
68107;BME280;54892;47.488;19.026;2022-08-20T00:25:31;99459.53;;;22.86;75.49
68107;BME280;54892;47.488;19.026;2022-08-20T00:28:34;99454.66;;;22.76;75.32
68107;BME280;54892;47.488;19.026;2022-08-20T00:31:39;99459.66;;;22.58;76.06
68107;BME280;54892;47.488;19.026;2022-08-20T00:34:42;99463.16;;;22.78;75.81
68107;BME280;54892;47.488;19.026;2022-08-20T00:37:45;99456.19;;;22.57;76.45
68107;BME280;54892;47.488;19.026;2022-08-20T00:40:49;99446.78;;;22.67;76.54
68107;BME280;54892;47.488;19.026;2022-08-20T00:44:02;99451.66;;;22.77;76.30
68107;BME280;54892;47.488;19.026;2022-08-20T00:47:07;99450.41;;;22.91;76.18
68107;BME280;54892;47.488;19.026;2022-08-20T00:50:11;99454.84;;;22.83;76.49
68107;BME280;54892;47.488;19.026;2022-08-20T00:53:15;99460.91;;;22.80;76.65
68107;BME280;54892;47.488;19.026;2022-08-20T00:56:20;99460.22;;;22.83;76.70
68107;BME280;54892;47.488;19.026;2022-08-20T00:59:24;99448.81;;;22.90;76.74
68107;BME280;54892;47.488;19.026;2022-08-20T01:02:30;99433.25;;;22.79;76.65
68107;BME280;54892;47.488;19.026;2022-08-20T01:05:33;99430.75;;;22.71;76.73
68107;BME280;54892;47.488;19.026;2022-08-20T01:08:36;99422.69;;;22.55;76.45
68107;BME280;54892;47.488;19.026;2022-08-20T01:11:39;99414.81;;;22.46;76.70
68107;BME280;54892;47.488;19.026;2022-08-20T01:14:42;99392.69;;;22.36;77.00
68107;BME280;54892;47.488;19.026;2022-08-20T01:17:49;99379.81;;;22.26;77.03
68107;BME280;54892;47.488;19.026;2022-08-20T01:20:54;99372.16;;;22.28;76.79
68107;BME280;54892;47.488;19.026;2022-08-20T01:23:58;99368.75;;;22.31;76.35
68107;BME280;54892;47.488;19.026;2022-08-20T01:27:06;99358.50;;;22.37;75.48
68107;BME280;54892;47.488;19.026;2022-08-20T01:30:10;99342.06;;;22.39;75.03
68107;BME280;54892;47.488;19.026;2022-08-20T01:33:13;99349.75;;;22.56;74.04
68107;BME280;54892;47.488;19.026;2022-08-20T01:36:20;99355.44;;;22.71;74.49
68107;BME280;54892;47.488;19.026;2022-08-20T01:39:24;99356.75;;;22.61;74.93
68107;BME280;54892;47.488;19.026;2022-08-20T01:42:30;99342.09;;;22.58;75.39
68107;BME280;54892;47.488;19.026;2022-08-20T01:45:36;99349.31;;;22.38;76.60
68107;BME280;54892;47.488;19.026;2022-08-20T01:48:40;99358.00;;;22.31;76.65
68107;BME280;54892;47.488;19.026;2022-08-20T01:51:44;99350.75;;;22.16;77.92
68107;BME280;54892;47.488;19.026;2022-08-20T01:54:47;99343.69;;;22.27;77.20
68107;BME280;54892;47.488;19.026;2022-08-20T01:57:51;99365.59;;;22.10;78.35
68107;BME280;54892;47.488;19.026;2022-08-20T02:00:55;99368.28;;;22.10;78.74
68107;BME280;54892;47.488;19.026;2022-08-20T02:03:59;99365.75;;;22.17;78.16
68107;BME280;54892;47.488;19.026;2022-08-20T02:07:04;99353.53;;;22.03;78.45
68107;BME280;54892;47.488;19.026;2022-08-20T02:10:08;99357.00;;;22.04;78.70
68107;BME280;54892;47.488;19.026;2022-08-20T02:13:13;99357.09;;;22.08;77.33
68107;BME280;54892;47.488;19.026;2022-08-20T02:16:18;99367.25;;;22.14;75.96
68107;BME280;54892;47.488;19.026;2022-08-20T02:19:23;99367.84;;;22.08;77.12
68107;BME280;54892;47.488;19.026;2022-08-20T02:22:29;99369.16;;;21.98;76.95
68107;BME280;54892;47.488;19.026;2022-08-20T02:25:36;99368.22;;;21.90;77.37
68107;BME280;54892;47.488;19.026;2022-08-20T02:28:42;99371.94;;;21.85;77.24
68107;BME280;54892;47.488;19.026;2022-08-20T02:31:45;99376.97;;;21.71;77.85
68107;BME280;54892;47.488;19.026;2022-08-20T02:34:49;99372.78;;;21.73;77.81
68107;BME280;54892;47.488;19.026;2022-08-20T02:37:52;99376.94;;;21.87;77.43
68107;BME280;54892;47.488;19.026;2022-08-20T02:40:56;99376.00;;;21.95;75.98
68107;BME280;54892;47.488;19.026;2022-08-20T02:44:01;99380.06;;;22.05;75.92
68107;BME280;54892;47.488;19.026;2022-08-20T02:47:05;99389.34;;;22.08;75.80
68107;BME280;54892;47.488;19.026;2022-08-20T02:50:10;99394.53;;;22.00;74.78
68107;BME280;54892;47.488;19.026;2022-08-20T02:53:15;99401.41;;;21.98;75.68
68107;BME280;54892;47.488;19.026;2022-08-20T02:56:18;99391.34;;;21.95;75.58
68107;BME280;54892;47.488;19.026;2022-08-20T02:59:23;99403.09;;;21.74;76.35
68107;BME280;54892;47.488;19.026;2022-08-20T03:02:26;99398.81;;;21.85;75.90
68107;BME280;54892;47.488;19.026;2022-08-20T03:05:30;99412.06;;;21.94;75.16
68107;BME280;54892;47.488;19.026;2022-08-20T03:08:33;99415.63;;;22.14;74.78
68107;BME280;54892;47.488;19.026;2022-08-20T03:11:37;99426.44;;;22.18;74.78
68107;BME280;54892;47.488;19.026;2022-08-20T03:14:42;99445.44;;;22.25;74.91
68107;BME280;54892;47.488;19.026;2022-08-20T03:17:44;99445.16;;;22.30;74.28
68107;BME280;54892;47.488;19.026;2022-08-20T03:20:48;99444.13;;;22.19;74.73
68107;BME280;54892;47.488;19.026;2022-08-20T03:23:52;99452.28;;;22.23;74.00
68107;BME280;54892;47.488;19.026;2022-08-20T03:26:55;99460.34;;;22.23;72.52
68107;BME280;54892;47.488;19.026;2022-08-20T03:30:00;99486.28;;;22.31;73.70
68107;BME280;54892;47.488;19.026;2022-08-20T03:33:03;99461.56;;;22.25;74.38
68107;BME280;54892;47.488;19.026;2022-08-20T03:36:07;99463.38;;;22.21;74.43
68107;BME280;54892;47.488;19.026;2022-08-20T03:39:12;99470.47;;;22.29;74.24
68107;BME280;54892;47.488;19.026;2022-08-20T03:42:17;99476.63;;;21.98;76.21
68107;BME280;54892;47.488;19.026;2022-08-20T03:45:23;99471.78;;;22.03;75.85
68107;BME280;54892;47.488;19.026;2022-08-20T03:48:26;99478.47;;;22.10;76.19
68107;BME280;54892;47.488;19.026;2022-08-20T03:51:30;99472.91;;;22.02;76.59
68107;BME280;54892;47.488;19.026;2022-08-20T03:54:34;99475.84;;;21.97;77.45
68107;BME280;54892;47.488;19.026;2022-08-20T03:57:42;99488.88;;;21.95;77.71
68107;BME280;54892;47.488;19.026;2022-08-20T04:00:47;99474.91;;;22.05;77.54
68107;BME280;54892;47.488;19.026;2022-08-20T04:03:51;99458.50;;;21.95;78.11
68107;BME280;54892;47.488;19.026;2022-08-20T04:06:55;99453.22;;;21.98;78.53
68107;BME280;54892;47.488;19.026;2022-08-20T04:09:58;99467.63;;;21.90;79.14
68107;BME280;54892;47.488;19.026;2022-08-20T04:13:02;99476.72;;;21.85;79.09
68107;BME280;54892;47.488;19.026;2022-08-20T04:16:06;99480.44;;;21.97;77.65
68107;BME280;54892;47.488;19.026;2022-08-20T04:19:10;99474.19;;;21.93;75.97
68107;BME280;54892;47.488;19.026;2022-08-20T04:22:13;99467.53;;;22.02;75.71
68107;BME280;54892;47.488;19.026;2022-08-20T04:25:16;99439.63;;;22.07;75.31
68107;BME280;54892;47.488;19.026;2022-08-20T04:28:21;99412.84;;;22.11;73.60
68107;BME280;54892;47.488;19.026;2022-08-20T04:31:29;99410.16;;;22.11;73.41
68107;BME280;54892;47.488;19.026;2022-08-20T04:34:35;99410.50;;;22.09;73.39
68107;BME280;54892;47.488;19.026;2022-08-20T04:37:38;99410.94;;;22.11;73.71
68107;BME280;54892;47.488;19.026;2022-08-20T04:40:41;99421.06;;;22.18;73.41
68107;BME280;54892;47.488;19.026;2022-08-20T04:43:59;99444.91;;;22.19;73.67
68107;BME280;54892;47.488;19.026;2022-08-20T04:47:04;99451.06;;;22.20;73.35
68107;BME280;54892;47.488;19.026;2022-08-20T04:50:08;99429.72;;;22.27;72.76
68107;BME280;54892;47.488;19.026;2022-08-20T04:53:12;99436.41;;;22.33;72.43
68107;BME280;54892;47.488;19.026;2022-08-20T04:56:15;99438.84;;;22.39;72.35
68107;BME280;54892;47.488;19.026;2022-08-20T04:59:20;99441.03;;;22.49;72.20
68107;BME280;54892;47.488;19.026;2022-08-20T05:02:24;99440.31;;;22.52;72.69
68107;BME280;54892;47.488;19.026;2022-08-20T05:05:27;99441.09;;;22.53;73.01
68107;BME280;54892;47.488;19.026;2022-08-20T05:08:31;99453.50;;;22.57;72.68
68107;BME280;54892;47.488;19.026;2022-08-20T05:11:35;99458.28;;;22.48;72.99
68107;BME280;54892;47.488;19.026;2022-08-20T05:14:38;99451.25;;;22.43;72.84
68107;BME280;54892;47.488;19.026;2022-08-20T05:17:43;99461.75;;;22.48;73.07
68107;BME280;54892;47.488;19.026;2022-08-20T05:20:46;99463.22;;;22.46;73.23
68107;BME280;54892;47.488;19.026;2022-08-20T05:23:49;99454.72;;;22.44;73.60
68107;BME280;54892;47.488;19.026;2022-08-20T05:26:52;99452.78;;;22.60;73.58
68107;BME280;54892;47.488;19.026;2022-08-20T05:29:58;99444.72;;;22.60;73.14
68107;BME280;54892;47.488;19.026;2022-08-20T05:33:03;99445.69;;;22.52;73.86
68107;BME280;54892;47.488;19.026;2022-08-20T05:36:07;99447.22;;;22.69;73.02
68107;BME280;54892;47.488;19.026;2022-08-20T05:39:10;99439.09;;;22.65;73.89
68107;BME280;54892;47.488;19.026;2022-08-20T05:42:14;99437.44;;;22.61;72.57
68107;BME280;54892;47.488;19.026;2022-08-20T05:45:18;99445.03;;;22.75;71.66
68107;BME280;54892;47.488;19.026;2022-08-20T05:48:23;99446.59;;;22.76;71.62
68107;BME280;54892;47.488;19.026;2022-08-20T05:51:27;99451.72;;;22.81;70.62
68107;BME280;54892;47.488;19.026;2022-08-20T05:54:31;99443.19;;;22.95;69.88
68107;BME280;54892;47.488;19.026;2022-08-20T05:57:34;99447.50;;;23.00;69.10
68107;BME280;54892;47.488;19.026;2022-08-20T06:00:37;99444.50;;;23.05;69.50
68107;BME280;54892;47.488;19.026;2022-08-20T06:03:42;99448.50;;;23.11;69.65
68107;BME280;54892;47.488;19.026;2022-08-20T06:07:04;99437.41;;;23.32;67.59
68107;BME280;54892;47.488;19.026;2022-08-20T06:10:07;99431.09;;;23.24;67.64
68107;BME280;54892;47.488;19.026;2022-08-20T06:13:11;99428.25;;;23.37;68.05
68107;BME280;54892;47.488;19.026;2022-08-20T06:16:14;99432.06;;;23.36;68.84
68107;BME280;54892;47.488;19.026;2022-08-20T06:19:19;99429.37;;;23.36;68.43
68107;BME280;54892;47.488;19.026;2022-08-20T06:22:22;99437.66;;;23.47;67.54
68107;BME280;54892;47.488;19.026;2022-08-20T06:25:26;99429.69;;;23.50;67.91
68107;BME280;54892;47.488;19.026;2022-08-20T06:28:30;99449.22;;;23.47;68.47
68107;BME280;54892;47.488;19.026;2022-08-20T06:31:33;99453.81;;;23.47;68.88
68107;BME280;54892;47.488;19.026;2022-08-20T06:34:41;99458.50;;;23.50;68.42
68107;BME280;54892;47.488;19.026;2022-08-20T06:37:45;99466.38;;;23.59;68.71
68107;BME280;54892;47.488;19.026;2022-08-20T06:40:49;99489.53;;;23.63;68.13
68107;BME280;54892;47.488;19.026;2022-08-20T06:43:52;99481.94;;;23.69;67.64
68107;BME280;54892;47.488;19.026;2022-08-20T06:46:58;99481.25;;;23.72;68.44
68107;BME280;54892;47.488;19.026;2022-08-20T06:50:03;99484.84;;;23.80;64.67
68107;BME280;54892;47.488;19.026;2022-08-20T06:53:10;99490.00;;;23.88;66.69
68107;BME280;54892;47.488;19.026;2022-08-20T06:56:12;99495.53;;;23.96;68.32
68107;BME280;54892;47.488;19.026;2022-08-20T06:59:16;99494.91;;;24.26;68.38
68107;BME280;54892;47.488;19.026;2022-08-20T07:02:19;99500.00;;;24.31;68.30
68107;BME280;54892;47.488;19.026;2022-08-20T07:05:26;99506.81;;;24.48;66.92
68107;BME280;54892;47.488;19.026;2022-08-20T07:08:29;99526.13;;;24.27;68.34
68107;BME280;54892;47.488;19.026;2022-08-20T07:11:32;99536.19;;;24.30;68.08
68107;BME280;54892;47.488;19.026;2022-08-20T07:14:35;99538.53;;;24.31;67.92
68107;BME280;54892;47.488;19.026;2022-08-20T07:17:39;99538.25;;;24.37;67.39
68107;BME280;54892;47.488;19.026;2022-08-20T07:20:44;99528.69;;;24.43;65.86
68107;BME280;54892;47.488;19.026;2022-08-20T07:23:47;99522.84;;;24.37;62.57
68107;BME280;54892;47.488;19.026;2022-08-20T07:26:50;99533.19;;;24.35;63.06
68107;BME280;54892;47.488;19.026;2022-08-20T07:29:53;99525.53;;;24.37;63.07
68107;BME280;54892;47.488;19.026;2022-08-20T07:33:14;99523.88;;;24.29;61.59
68107;BME280;54892;47.488;19.026;2022-08-20T07:36:18;99531.34;;;24.16;62.63
68107;BME280;54892;47.488;19.026;2022-08-20T07:39:22;99540.38;;;24.04;63.12
68107;BME280;54892;47.488;19.026;2022-08-20T07:42:25;99545.75;;;24.04;64.08
68107;BME280;54892;47.488;19.026;2022-08-20T07:45:29;99552.97;;;24.20;63.41
68107;BME280;54892;47.488;19.026;2022-08-20T07:48:33;99566.25;;;24.09;64.64
68107;BME280;54892;47.488;19.026;2022-08-20T07:51:37;99592.28;;;23.81;64.78
68107;BME280;54892;47.488;19.026;2022-08-20T07:54:41;99608.72;;;23.56;64.41
68107;BME280;54892;47.488;19.026;2022-08-20T07:57:46;99646.66;;;23.00;71.79
68107;BME280;54892;47.488;19.026;2022-08-20T08:00:50;99674.06;;;22.73;74.49
68107;BME280;54892;47.488;19.026;2022-08-20T08:03:53;99683.53;;;22.39;77.21
68107;BME280;54892;47.488;19.026;2022-08-20T08:06:59;99672.75;;;22.39;78.88
68107;BME280;54892;47.488;19.026;2022-08-20T08:10:03;99664.09;;;22.17;80.44
68107;BME280;54892;47.488;19.026;2022-08-20T08:13:07;99647.16;;;22.29;81.62
68107;BME280;54892;47.488;19.026;2022-08-20T08:16:12;99649.41;;;22.27;81.73
68107;BME280;54892;47.488;19.026;2022-08-20T08:19:15;99667.78;;;22.25;79.57
68107;BME280;54892;47.488;19.026;2022-08-20T08:22:21;99680.44;;;22.24;80.53
68107;BME280;54892;47.488;19.026;2022-08-20T08:25:24;99693.47;;;22.10;80.67
68107;BME280;54892;47.488;19.026;2022-08-20T08:28:27;99701.34;;;21.90;82.18
68107;BME280;54892;47.488;19.026;2022-08-20T08:31:31;99695.75;;;21.83;82.13
68107;BME280;54892;47.488;19.026;2022-08-20T08:34:34;99691.19;;;21.83;80.78
68107;BME280;54892;47.488;19.026;2022-08-20T08:37:39;99681.00;;;21.52;81.16
68107;BME280;54892;47.488;19.026;2022-08-20T08:40:42;99660.75;;;21.42;82.17
68107;BME280;54892;47.488;19.026;2022-08-20T08:43:46;99660.31;;;21.40;82.81
68107;BME280;54892;47.488;19.026;2022-08-20T08:46:51;99645.53;;;21.46;83.40
68107;BME280;54892;47.488;19.026;2022-08-20T08:49:54;99650.47;;;21.44;83.70
68107;BME280;54892;47.488;19.026;2022-08-20T08:52:59;99648.56;;;21.44;84.67
68107;BME280;54892;47.488;19.026;2022-08-20T08:56:03;99641.41;;;21.61;81.35
68107;BME280;54892;47.488;19.026;2022-08-20T08:59:07;99638.41;;;21.38;83.50
68107;BME280;54892;47.488;19.026;2022-08-20T09:02:16;99603.38;;;21.47;81.69
68107;BME280;54892;47.488;19.026;2022-08-20T09:05:20;99590.81;;;21.51;82.47
68107;BME280;54892;47.488;19.026;2022-08-20T09:08:28;99604.69;;;21.53;81.07
68107;BME280;54892;47.488;19.026;2022-08-20T09:11:35;99618.13;;;21.40;81.50
68107;BME280;54892;47.488;19.026;2022-08-20T09:14:46;99632.91;;;21.09;84.51
68107;BME280;54892;47.488;19.026;2022-08-20T09:17:50;99665.87;;;21.10;83.65
68107;BME280;54892;47.488;19.026;2022-08-20T09:20:53;99692.50;;;21.27;82.86
68107;BME280;54892;47.488;19.026;2022-08-20T09:23:58;99697.88;;;21.03;83.89
68107;BME280;54892;47.488;19.026;2022-08-20T09:27:01;99711.81;;;20.96;83.62
68107;BME280;54892;47.488;19.026;2022-08-20T09:30:05;99714.94;;;20.86;85.46
68107;BME280;54892;47.488;19.026;2022-08-20T09:33:09;99729.25;;;20.90;85.72
68107;BME280;54892;47.488;19.026;2022-08-20T09:36:11;99713.50;;;21.01;86.56
68107;BME280;54892;47.488;19.026;2022-08-20T09:39:16;99706.81;;;21.07;85.11
68107;BME280;54892;47.488;19.026;2022-08-20T09:42:20;99705.16;;;21.14;85.83
68107;BME280;54892;47.488;19.026;2022-08-20T09:45:23;99677.22;;;21.16;85.41
68107;BME280;54892;47.488;19.026;2022-08-20T09:48:26;99664.88;;;21.02;84.41
68107;BME280;54892;47.488;19.026;2022-08-20T09:51:29;99656.06;;;21.14;85.03
68107;BME280;54892;47.488;19.026;2022-08-20T09:54:34;99644.56;;;21.01;85.70
68107;BME280;54892;47.488;19.026;2022-08-20T09:57:38;99625.63;;;20.97;86.31
68107;BME280;54892;47.488;19.026;2022-08-20T10:00:42;99595.81;;;20.99;87.40
68107;BME280;54892;47.488;19.026;2022-08-20T10:03:45;99589.53;;;20.95;87.51
68107;BME280;54892;47.488;19.026;2022-08-20T10:06:49;99558.47;;;20.81;88.58
68107;BME280;54892;47.488;19.026;2022-08-20T10:09:53;99551.97;;;20.82;88.90
68107;BME280;54892;47.488;19.026;2022-08-20T10:12:56;99546.16;;;20.80;88.60
68107;BME280;54892;47.488;19.026;2022-08-20T10:16:00;99524.44;;;20.73;88.90
68107;BME280;54892;47.488;19.026;2022-08-20T10:19:03;99483.47;;;20.85;88.62
68107;BME280;54892;47.488;19.026;2022-08-20T10:22:06;99458.44;;;20.93;88.07
68107;BME280;54892;47.488;19.026;2022-08-20T10:25:11;99459.63;;;21.08;86.16
68107;BME280;54892;47.488;19.026;2022-08-20T10:28:14;99471.03;;;21.05;85.02
68107;BME280;54892;47.488;19.026;2022-08-20T10:31:17;99485.72;;;21.36;83.00
68107;BME280;54892;47.488;19.026;2022-08-20T10:34:21;99513.53;;;21.44;84.54
68107;BME280;54892;47.488;19.026;2022-08-20T10:37:24;99528.44;;;21.41;84.85
68107;BME280;54892;47.488;19.026;2022-08-20T10:40:29;99547.53;;;21.52;84.98
68107;BME280;54892;47.488;19.026;2022-08-20T10:43:32;99566.47;;;21.43;85.32
68107;BME280;54892;47.488;19.026;2022-08-20T10:46:35;99571.94;;;21.47;84.24
68107;BME280;54892;47.488;19.026;2022-08-20T10:49:38;99579.09;;;21.55;83.47
68107;BME280;54892;47.488;19.026;2022-08-20T10:52:41;99588.16;;;21.63;83.70
68107;BME280;54892;47.488;19.026;2022-08-20T10:55:46;99604.56;;;21.74;83.01
68107;BME280;54892;47.488;19.026;2022-08-20T10:58:49;99608.34;;;21.85;82.53
68107;BME280;54892;47.488;19.026;2022-08-20T11:01:52;99607.56;;;21.85;82.22
68107;BME280;54892;47.488;19.026;2022-08-20T11:04:55;99612.78;;;21.94;81.52
68107;BME280;54892;47.488;19.026;2022-08-20T11:07:59;99619.63;;;21.91;80.71
68107;BME280;54892;47.488;19.026;2022-08-20T11:11:05;99619.59;;;22.03;80.09
68107;BME280;54892;47.488;19.026;2022-08-20T11:14:08;99620.81;;;22.06;79.68
68107;BME280;54892;47.488;19.026;2022-08-20T11:17:11;99630.69;;;21.89;77.46
68107;BME280;54892;47.488;19.026;2022-08-20T11:20:15;99639.06;;;22.00;78.53
68107;BME280;54892;47.488;19.026;2022-08-20T11:23:20;99646.91;;;22.05;78.14
68107;BME280;54892;47.488;19.026;2022-08-20T11:26:25;99639.53;;;22.02;76.75
68107;BME280;54892;47.488;19.026;2022-08-20T11:29:28;99637.28;;;22.33;77.99
68107;BME280;54892;47.488;19.026;2022-08-20T11:32:34;99632.00;;;22.36;76.53
68107;BME280;54892;47.488;19.026;2022-08-20T11:35:37;99628.66;;;22.56;76.50
68107;BME280;54892;47.488;19.026;2022-08-20T11:38:42;99624.31;;;22.51;76.47
68107;BME280;54892;47.488;19.026;2022-08-20T11:41:47;99623.28;;;22.56;76.58
68107;BME280;54892;47.488;19.026;2022-08-20T11:44:50;99615.06;;;22.64;76.71
68107;BME280;54892;47.488;19.026;2022-08-20T11:47:53;99612.13;;;22.70;76.53
68107;BME280;54892;47.488;19.026;2022-08-20T11:50:56;99603.25;;;22.85;76.10
68107;BME280;54892;47.488;19.026;2022-08-20T11:53:59;99603.50;;;22.80;73.95
68107;BME280;54892;47.488;19.026;2022-08-20T11:57:04;99605.41;;;22.63;74.90
68107;BME280;54892;47.488;19.026;2022-08-20T12:00:09;99604.91;;;22.58;75.41
68107;BME280;54892;47.488;19.026;2022-08-20T12:03:13;99596.47;;;22.59;75.68
68107;BME280;54892;47.488;19.026;2022-08-20T12:06:16;99587.38;;;22.64;75.87
68107;BME280;54892;47.488;19.026;2022-08-20T12:09:19;99586.34;;;22.69;75.19
68107;BME280;54892;47.488;19.026;2022-08-20T12:12:26;99580.88;;;22.65;74.98
68107;BME280;54892;47.488;19.026;2022-08-20T12:15:29;99587.03;;;22.65;75.04
68107;BME280;54892;47.488;19.026;2022-08-20T12:18:32;99573.91;;;22.80;74.82
68107;BME280;54892;47.488;19.026;2022-08-20T12:21:35;99565.06;;;22.63;75.45
68107;BME280;54892;47.488;19.026;2022-08-20T12:24:38;99561.78;;;22.70;74.83
68107;BME280;54892;47.488;19.026;2022-08-20T12:27:42;99553.78;;;22.74;75.28
68107;BME280;54892;47.488;19.026;2022-08-20T12:30:45;99549.78;;;22.84;75.47
68107;BME280;54892;47.488;19.026;2022-08-20T12:33:48;99536.44;;;22.87;75.31
68107;BME280;54892;47.488;19.026;2022-08-20T12:36:58;99532.81;;;22.99;75.01
68107;BME280;54892;47.488;19.026;2022-08-20T12:40:03;99523.72;;;23.04;74.46
68107;BME280;54892;47.488;19.026;2022-08-20T12:43:08;99525.16;;;23.17;73.75
68107;BME280;54892;47.488;19.026;2022-08-20T12:46:12;99521.53;;;23.09;74.99
68107;BME280;54892;47.488;19.026;2022-08-20T12:49:15;99515.28;;;23.05;75.63
68107;BME280;54892;47.488;19.026;2022-08-20T12:52:19;99517.09;;;23.17;75.19
68107;BME280;54892;47.488;19.026;2022-08-20T12:55:23;99501.56;;;23.10;73.36
68107;BME280;54892;47.488;19.026;2022-08-20T12:58:27;99490.94;;;23.18;74.06
68107;BME280;54892;47.488;19.026;2022-08-20T13:01:30;99487.09;;;23.19;73.85
68107;BME280;54892;47.488;19.026;2022-08-20T13:04:34;99490.59;;;23.19;72.11
68107;BME280;54892;47.488;19.026;2022-08-20T13:07:37;99483.91;;;23.13;71.56
68107;BME280;54892;47.488;19.026;2022-08-20T13:10:40;99488.06;;;23.26;72.24
68107;BME280;54892;47.488;19.026;2022-08-20T13:13:47;99495.06;;;23.31;71.84
68107;BME280;54892;47.488;19.026;2022-08-20T13:16:55;99481.28;;;23.33;70.98
68107;BME280;54892;47.488;19.026;2022-08-20T13:19:59;99492.81;;;23.33;70.53
68107;BME280;54892;47.488;19.026;2022-08-20T13:23:02;99481.72;;;23.35;70.80
68107;BME280;54892;47.488;19.026;2022-08-20T13:26:05;99493.31;;;23.39;70.97
68107;BME280;54892;47.488;19.026;2022-08-20T13:29:09;99486.78;;;23.40;70.16
68107;BME280;54892;47.488;19.026;2022-08-20T13:32:12;99484.09;;;23.40;69.20
68107;BME280;54892;47.488;19.026;2022-08-20T13:35:16;99477.63;;;23.45;68.67
68107;BME280;54892;47.488;19.026;2022-08-20T13:38:23;99479.12;;;23.42;68.46
68107;BME280;54892;47.488;19.026;2022-08-20T13:41:26;99486.94;;;23.47;68.93
68107;BME280;54892;47.488;19.026;2022-08-20T13:44:32;99480.75;;;23.47;68.99
68107;BME280;54892;47.488;19.026;2022-08-20T13:47:50;99481.63;;;23.51;68.58
68107;BME280;54892;47.488;19.026;2022-08-20T13:50:56;99494.00;;;23.55;68.48
68107;BME280;54892;47.488;19.026;2022-08-20T13:54:03;99491.37;;;23.59;69.01
68107;BME280;54892;47.488;19.026;2022-08-20T13:57:10;99499.63;;;23.66;69.28
68107;BME280;54892;47.488;19.026;2022-08-20T14:00:18;99504.22;;;23.66;71.73
68107;BME280;54892;47.488;19.026;2022-08-20T14:03:28;99513.22;;;23.74;70.96
68107;BME280;54892;47.488;19.026;2022-08-20T14:06:36;99518.91;;;23.68;70.19
68107;BME280;54892;47.488;19.026;2022-08-20T14:09:39;99527.31;;;23.67;69.84
68107;BME280;54892;47.488;19.026;2022-08-20T14:12:43;99522.16;;;23.78;69.92
68107;BME280;54892;47.488;19.026;2022-08-20T14:15:49;99507.16;;;23.57;69.20
68107;BME280;54892;47.488;19.026;2022-08-20T14:18:54;99494.00;;;23.55;66.30
68107;BME280;54892;47.488;19.026;2022-08-20T14:21:59;99490.19;;;23.56;66.75
68107;BME280;54892;47.488;19.026;2022-08-20T14:25:04;99478.28;;;23.57;67.02
68107;BME280;54892;47.488;19.026;2022-08-20T14:28:08;99468.22;;;23.54;66.04
68107;BME280;54892;47.488;19.026;2022-08-20T14:31:16;99476.06;;;23.44;66.49
68107;BME280;54892;47.488;19.026;2022-08-20T14:34:22;99476.72;;;23.56;67.12
68107;BME280;54892;47.488;19.026;2022-08-20T14:37:26;99484.47;;;23.58;66.88
68107;BME280;54892;47.488;19.026;2022-08-20T14:40:30;99479.62;;;23.48;66.89
68107;BME280;54892;47.488;19.026;2022-08-20T14:43:35;99482.19;;;23.40;67.70
68107;BME280;54892;47.488;19.026;2022-08-20T14:46:40;99482.09;;;23.37;68.19
68107;BME280;54892;47.488;19.026;2022-08-20T14:49:44;99487.72;;;23.48;68.17
68107;BME280;54892;47.488;19.026;2022-08-20T14:52:48;99474.87;;;23.41;67.31
68107;BME280;54892;47.488;19.026;2022-08-20T14:55:53;99468.09;;;23.27;68.39
68107;BME280;54892;47.488;19.026;2022-08-20T14:58:58;99476.16;;;23.27;68.14
68107;BME280;54892;47.488;19.026;2022-08-20T15:02:06;99484.41;;;23.35;67.96
68107;BME280;54892;47.488;19.026;2022-08-20T15:05:13;99496.00;;;23.39;67.71
68107;BME280;54892;47.488;19.026;2022-08-20T15:08:16;99502.44;;;23.34;66.54
68107;BME280;54892;47.488;19.026;2022-08-20T15:11:19;99504.22;;;23.46;66.74
68107;BME280;54892;47.488;19.026;2022-08-20T15:14:26;99512.75;;;23.48;66.93
68107;BME280;54892;47.488;19.026;2022-08-20T15:17:31;99513.72;;;23.40;66.44
68107;BME280;54892;47.488;19.026;2022-08-20T15:20:36;99515.06;;;23.30;66.11
68107;BME280;54892;47.488;19.026;2022-08-20T15:23:40;99521.56;;;23.29;66.44
68107;BME280;54892;47.488;19.026;2022-08-20T15:26:42;99525.00;;;23.26;66.42
68107;BME280;54892;47.488;19.026;2022-08-20T15:29:46;99513.25;;;23.18;66.81
68107;BME280;54892;47.488;19.026;2022-08-20T15:32:50;99500.56;;;23.19;67.44
68107;BME280;54892;47.488;19.026;2022-08-20T15:35:55;99506.66;;;23.16;67.94
68107;BME280;54892;47.488;19.026;2022-08-20T15:38:58;99507.09;;;23.18;68.15
68107;BME280;54892;47.488;19.026;2022-08-20T15:42:01;99507.78;;;23.15;68.64
68107;BME280;54892;47.488;19.026;2022-08-20T15:45:06;99508.16;;;23.13;68.71
68107;BME280;54892;47.488;19.026;2022-08-20T15:48:11;99518.66;;;23.18;68.88
68107;BME280;54892;47.488;19.026;2022-08-20T15:51:21;99515.44;;;23.12;69.26
68107;BME280;54892;47.488;19.026;2022-08-20T15:54:26;99518.28;;;23.20;68.95
68107;BME280;54892;47.488;19.026;2022-08-20T15:57:34;99508.75;;;23.22;69.05
68107;BME280;54892;47.488;19.026;2022-08-20T16:00:39;99513.69;;;23.20;69.12
68107;BME280;54892;47.488;19.026;2022-08-20T16:03:55;99525.00;;;23.26;69.25